Time;durP1;ratioP1;P1;durP2;ratioP2;P2;SDS_P1;SDS_P2;PMS_P1;PMS_P2;Temp;Humidity;BMP_temperature;BMP_pressure;BME280_temperature;BME280_humidity;BME280_pressure;Samples;Min_cycle;Max_cycle;Signal;HPM_P1;HPM_P2
2021/05/18 00:00:42;;;;;;;0.40;0.10;;;10.60;99.90;;;;;;5131213;28;20414;-68
2021/05/18 00:03:09;;;;;;;0.30;0.10;;;10.60;99.90;;;;;;5132019;28;20418;-68
2021/05/18 00:05:38;;;;;;;0.40;0.10;;;10.60;99.90;;;;;;5132571;28;20942;-68
2021/05/18 00:08:06;;;;;;;0.30;0.10;;;10.60;99.90;;;;;;5135423;27;20508;-67
2021/05/18 00:13:21;;;;;;;0.50;0.10;;;10.70;99.90;;;;;;5137828;27;20949;-68
2021/05/18 00:15:49;;;;;;;0.30;0.10;;;10.60;99.90;;;;;;5138561;27;20513;-68
2021/05/18 00:18:16;;;;;;;0.30;0.10;;;10.60;99.90;;;;;;5138740;27;20598;-68
2021/05/18 00:20:43;;;;;;;0.40;0.10;;;10.60;99.90;;;;;;5137323;27;20414;-68
2021/05/18 00:23:12;;;;;;;0.60;0.10;;;10.60;99.90;;;;;;5138450;27;20783;-67
2021/05/18 00:25:39;;;;;;;0.30;0.10;;;10.60;99.90;;;;;;5137796;27;20440;-67
2021/05/18 00:28:05;;;;;;;0.30;0.10;;;10.60;99.90;;;;;;5137598;27;20425;-68
2021/05/18 00:30:33;;;;;;;0.40;0.10;;;10.50;99.90;;;;;;5137156;27;20517;-67
2021/05/18 00:33:00;;;;;;;0.50;0.20;;;10.50;99.90;;;;;;5136937;27;20433;-68
2021/05/18 00:35:26;;;;;;;0.30;0.10;;;10.40;99.90;;;;;;5137630;27;20531;-67
2021/05/18 00:37:55;;;;;;;1.30;0.20;;;10.30;99.90;;;;;;5136474;27;20543;-68
2021/05/18 00:40:21;;;;;;;0.40;0.10;;;10.40;99.90;;;;;;5135868;27;20418;-68
2021/05/18 00:42:50;;;;;;;0.40;0.10;;;10.40;99.90;;;;;;5136394;27;20457;-69
2021/05/18 00:45:25;;;;;;;0.40;0.10;;;10.50;99.90;;;;;;5134361;27;20437;-68
2021/05/18 00:47:52;;;;;;;0.30;0.10;;;10.50;99.90;;;;;;5135127;27;20426;-69
2021/05/18 00:50:19;;;;;;;0.40;0.10;;;10.50;99.90;;;;;;5135378;27;20417;-68
2021/05/18 00:52:45;;;;;;;0.30;0.10;;;10.50;99.90;;;;;;5136536;27;20411;-69
2021/05/18 00:55:19;;;;;;;0.30;0.10;;;10.40;99.90;;;;;;5137968;27;20850;-68
2021/05/18 01:00:31;;;;;;;0.30;0.10;;;10.40;99.90;;;;;;5137975;27;20439;-68
2021/05/18 01:02:58;;;;;;;0.30;0.10;;;10.40;99.90;;;;;;5137655;27;20565;-68
2021/05/18 01:06:19;;;;;;;0.30;0.10;;;10.40;99.90;;;;;;5137111;27;20421;-68
2021/05/18 01:08:12;;;;;;;0.33;0.10;;;10.40;99.90;;;;;;5137042;27;20500;-68
2021/05/18 01:10:39;;;;;;;0.50;0.10;;;10.40;99.90;;;;;;5138341;27;20812;-68
2021/05/18 01:13:06;;;;;;;0.50;0.13;;;10.40;99.90;;;;;;5138701;27;20458;-68
2021/05/18 01:15:32;;;;;;;0.30;0.10;;;10.40;99.90;;;;;;5138520;27;20426;-68
2021/05/18 01:18:00;;;;;;;0.50;0.10;;;10.40;99.90;;;;;;5138240;27;20458;-67
2021/05/18 01:20:26;;;;;;;0.40;0.10;;;10.50;99.90;;;;;;5137373;27;20508;-67
2021/05/18 01:22:53;;;;;;;0.57;0.10;;;10.50;99.90;;;;;;5136929;27;20565;-68
2021/05/18 01:25:21;;;;;;;0.40;0.10;;;10.50;99.90;;;;;;5138710;27;20421;-68
2021/05/18 01:27:48;;;;;;;0.30;0.10;;;10.50;99.90;;;;;;5137579;27;20529;-68
2021/05/18 01:30:16;;;;;;;0.30;0.10;;;10.60;99.90;;;;;;5136596;27;20786;-67
2021/05/18 01:32:43;;;;;;;0.30;0.10;;;10.60;99.90;;;;;;5137658;27;20851;-68
2021/05/18 01:35:12;;;;;;;0.30;0.10;;;10.70;99.90;;;;;;5138504;27;20566;-68
2021/05/18 01:37:39;;;;;;;0.30;0.10;;;10.60;99.90;;;;;;5138692;27;20444;-68
2021/05/18 01:40:26;;;;;;;0.30;0.10;;;10.60;99.90;;;;;;5139228;27;20457;-68
2021/05/18 01:42:54;;;;;;;0.30;0.10;;;10.40;99.90;;;;;;5138108;27;20499;-68
2021/05/18 01:45:22;;;;;;;0.30;0.10;;;10.40;99.90;;;;;;5140091;27;20425;-68
2021/05/18 01:47:51;;;;;;;0.30;0.10;;;10.40;99.90;;;;;;5138394;27;20567;-68
2021/05/18 01:50:20;;;;;;;0.40;0.10;;;10.50;99.90;;;;;;5138321;27;20425;-67
2021/05/18 01:52:47;;;;;;;0.30;0.10;;;10.40;99.90;;;;;;5137509;27;20506;-68
2021/05/18 01:55:18;;;;;;;0.30;0.10;;;10.30;99.90;;;;;;5136167;27;20959;-67
2021/05/18 01:57:45;;;;;;;0.40;0.20;;;10.30;99.90;;;;;;5137595;27;20786;-67
2021/05/18 02:00:14;;;;;;;0.40;0.10;;;10.30;99.90;;;;;;5136990;27;20517;-68
2021/05/18 02:02:42;;;;;;;0.30;0.10;;;10.30;99.90;;;;;;5138026;27;20446;-68
2021/05/18 02:05:11;;;;;;;0.40;0.20;;;10.30;99.90;;;;;;5137692;27;20402;-68
2021/05/18 02:07:39;;;;;;;0.40;0.10;;;10.30;99.90;;;;;;5136770;27;20423;-68
2021/05/18 02:10:07;;;;;;;0.30;0.10;;;10.30;99.90;;;;;;5137477;27;20491;-67
2021/05/18 02:12:35;;;;;;;0.30;0.10;;;10.20;99.90;;;;;;5136864;27;20419;-68
2021/05/18 02:15:07;;;;;;;0.30;0.10;;;10.20;99.90;;;;;;5137197;27;20469;-67
2021/05/18 02:17:39;;;;;;;0.70;0.10;;;10.20;99.90;;;;;;5136286;27;20425;-67
2021/05/18 02:20:15;;;;;;;0.50;0.10;;;10.20;99.90;;;;;;5136966;27;20513;-68
2021/05/18 02:25:25;;;;;;;0.30;0.10;;;10.30;99.90;;;;;;5102680;27;20391;-68
2021/05/18 02:27:55;;;;;;;0.32;0.13;;;10.20;99.90;;;;;;5136028;27;20429;-67
2021/05/18 02:30:23;;;;;;;0.40;0.10;;;10.20;99.90;;;;;;5135171;27;20678;-68
2021/05/18 02:32:51;;;;;;;0.37;0.10;;;10.20;99.90;;;;;;5135654;27;20531;-67
2021/05/18 02:35:18;;;;;;;0.30;0.10;;;10.20;99.90;;;;;;5137393;27;20909;-68
2021/05/18 02:37:46;;;;;;;0.30;0.10;;;10.20;99.90;;;;;;5136479;27;20497;-68
2021/05/18 02:40:18;;;;;;;0.30;0.17;;;10.20;99.90;;;;;;5136245;27;20548;-68
2021/05/18 02:42:45;;;;;;;0.30;0.10;;;10.20;99.90;;;;;;5136994;27;20837;-67
2021/05/18 02:45:18;;;;;;;0.30;0.10;;;10.20;99.90;;;;;;5135716;27;20520;-68
2021/05/18 02:50:29;;;;;;;0.40;0.20;;;10.20;99.90;;;;;;5135930;27;20405;-68
2021/05/18 02:52:56;;;;;;;0.60;0.10;;;10.20;99.90;;;;;;5135908;27;20423;-68
2021/05/18 02:55:32;;;;;;;0.30;0.10;;;10.20;99.90;;;;;;5136115;27;20426;-69
2021/05/18 02:57:58;;;;;;;0.30;0.10;;;10.30;99.90;;;;;;5135552;27;20769;-69
2021/05/18 03:00:25;;;;;;;0.40;0.20;;;10.30;99.90;;;;;;5136624;27;20443;-68
2021/05/18 03:02:52;;;;;;;0.30;0.10;;;10.30;99.90;;;;;;5134896;27;20418;-69
2021/05/18 03:05:20;;;;;;;0.30;0.10;;;10.30;99.90;;;;;;5136415;27;20497;-68
2021/05/18 03:07:46;;;;;;;0.50;0.10;;;10.20;99.90;;;;;;5135092;27;20505;-68
2021/05/18 03:10:14;;;;;;;0.30;0.10;;;10.20;99.90;;;;;;5134059;27;20567;-68
2021/05/18 03:12:41;;;;;;;0.60;0.10;;;10.20;99.90;;;;;;5134394;27;20411;-68
2021/05/18 03:15:09;;;;;;;0.40;0.10;;;10.20;99.90;;;;;;5133334;27;20909;-68
2021/05/18 03:17:37;;;;;;;0.40;0.10;;;10.30;99.90;;;;;;5134877;27;20510;-68
2021/05/18 03:20:04;;;;;;;0.70;0.10;;;10.40;99.90;;;;;;5134959;27;20418;-69
2021/05/18 03:22:31;;;;;;;0.30;0.10;;;10.40;99.90;;;;;;5132160;27;20414;-68
2021/05/18 03:24:57;;;;;;;0.30;0.10;;;10.50;99.90;;;;;;5132859;27;20493;-68
2021/05/18 03:27:26;;;;;;;0.30;0.10;;;10.50;99.90;;;;;;5133280;27;20743;-68
2021/05/18 03:29:53;;;;;;;0.40;0.10;;;10.40;99.90;;;;;;5133054;27;20434;-68
2021/05/18 03:35:05;;;;;;;0.30;0.10;;;10.40;99.90;;;;;;5133131;27;20509;-68
2021/05/18 03:37:41;;;;;;;0.40;0.10;;;10.30;99.90;;;;;;5133955;27;20414;-67
2021/05/18 03:40:10;;;;;;;0.60;0.10;;;10.30;99.90;;;;;;5134156;27;20422;-69
2021/05/18 03:42:38;;;;;;;0.30;0.10;;;10.20;99.90;;;;;;5133718;27;20976;-68
2021/05/18 03:45:12;;;;;;;0.50;0.10;;;10.30;99.90;;;;;;5134865;27;20499;-68
2021/05/18 03:53:35;;;;;;;0.30;0.10;;;10.30;99.90;;;;;;5134925;28;20499;-68
2021/05/18 03:58:57;;;;;;;0.30;0.10;;;10.20;99.90;;;;;;5134973;28;20410;-68
2021/05/18 04:04:14;;;;;;;0.30;0.10;;;10.20;99.90;;;;;;5133665;28;20426;-68
2021/05/18 04:12:17;;;;;;;0.30;0.10;;;10.10;99.90;;;;;;5134417;28;20447;-68
2021/05/18 04:17:30;;;;;;;0.45;0.10;;;10.10;99.90;;;;;;5114800;28;20457;-68
2021/05/18 04:20:07;;;;;;;0.30;0.10;;;10.10;99.90;;;;;;5113833;28;20467;-69
2021/05/18 04:22:53;;;;;;;0.40;0.20;;;10.10;99.90;;;;;;5112673;28;20697;-68
2021/05/18 04:39:15;;;;;;;0.40;0.20;;;10.10;99.90;;;;;;5114293;28;20429;-68
2021/05/18 04:50:29;;;;;;;0.40;0.20;;;10.10;99.90;;;;;;5111704;28;20422;-69
2021/05/18 04:53:04;;;;;;;0.40;0.20;;;10.10;99.90;;;;;;5111276;28;20728;-70
2021/05/18 05:01:03;;;;;;;0.30;0.10;;;10.20;99.90;;;;;;5114118;28;20399;-71
2021/05/18 05:03:53;;;;;;;0.38;0.10;;;10.20;99.90;;;;;;5115600;28;20428;-72
2021/05/18 05:06:28;;;;;;;0.40;0.30;;;10.20;99.90;;;;;;5116252;28;20676;-71
2021/05/18 05:09:05;;;;;;;0.70;0.20;;;10.30;99.90;;;;;;5117655;28;20837;-71
2021/05/18 05:14:23;;;;;;;0.30;0.10;;;10.50;99.90;;;;;;5116610;28;20411;-71
2021/05/18 05:16:50;;;;;;;0.32;0.10;;;10.60;99.90;;;;;;5117205;28;20859;-72
2021/05/18 05:19:17;;;;;;;0.40;0.10;;;10.60;99.90;;;;;;5117102;28;20699;-71
2021/05/18 05:21:43;;;;;;;0.30;0.10;;;10.70;99.90;;;;;;5114917;28;20499;-71
2021/05/18 05:24:10;;;;;;;0.40;0.10;;;10.70;99.90;;;;;;5117470;28;20939;-73
2021/05/18 05:26:39;;;;;;;0.40;0.20;;;10.70;99.90;;;;;;5117396;28;20923;-71
2021/05/18 05:29:07;;;;;;;1.17;0.20;;;10.70;99.90;;;;;;5116893;28;20862;-71
2021/05/18 05:31:34;;;;;;;0.40;0.20;;;10.70;99.90;;;;;;5116888;28;20456;-70
2021/05/18 05:34:01;;;;;;;0.60;0.20;;;10.70;99.90;;;;;;5117274;28;20848;-71
2021/05/18 05:36:27;;;;;;;0.40;0.20;;;10.70;99.90;;;;;;5117590;28;20871;-71
2021/05/18 05:39:01;;;;;;;0.40;0.20;;;10.70;99.90;;;;;;5116845;28;20463;-71
2021/05/18 05:41:27;;;;;;;0.40;0.20;;;10.60;99.90;;;;;;5116701;28;20451;-71
2021/05/18 05:43:55;;;;;;;0.40;0.20;;;10.60;99.90;;;;;;5117518;28;20522;-70
2021/05/18 05:46:21;;;;;;;0.80;0.20;;;10.70;99.90;;;;;;5117781;28;20443;-71
2021/05/18 05:48:52;;;;;;;0.40;0.20;;;10.70;99.90;;;;;;5117596;28;20455;-71
2021/05/18 05:51:23;;;;;;;0.40;0.10;;;10.70;99.90;;;;;;5115492;28;20785;-70
2021/05/18 05:53:50;;;;;;;0.40;0.10;;;10.70;99.90;;;;;;5115583;28;20428;-71
2021/05/18 05:56:17;;;;;;;0.40;0.10;;;10.70;99.90;;;;;;5115369;28;20511;-70
2021/05/18 05:58:44;;;;;;;0.90;0.20;;;10.80;99.90;;;;;;5114533;28;21001;-70
2021/05/18 06:01:11;;;;;;;0.40;0.20;;;11.00;99.90;;;;;;5113784;28;20423;-71
2021/05/18 06:03:39;;;;;;;1.70;0.20;;;11.00;99.90;;;;;;5112940;28;20430;-71
2021/05/18 06:06:05;;;;;;;0.70;0.30;;;11.00;99.90;;;;;;5113972;28;21039;-70
2021/05/18 06:08:36;;;;;;;1.80;0.30;;;11.00;99.90;;;;;;5113337;28;20510;-71
2021/05/18 06:11:06;;;;;;;0.60;0.30;;;11.00;99.90;;;;;;5113097;28;20417;-70
2021/05/18 06:14:00;;;;;;;0.73;0.20;;;11.10;99.90;;;;;;5113927;28;20431;-70
2021/05/18 06:41:55;;;;;;;0.50;0.22;;;11.10;99.90;;;;;;5114693;28;20434;-69
2021/05/18 06:47:31;;;;;;;0.40;0.20;;;11.50;99.90;;;;;;5051259;28;20402;-69
2021/05/18 06:50:08;;;;;;;0.40;0.20;;;11.80;99.90;;;;;;5105155;28;20420;-69
2021/05/18 06:52:35;;;;;;;0.40;0.20;;;11.70;99.90;;;;;;5115270;28;20445;-70
2021/05/18 06:55:03;;;;;;;0.55;0.30;;;11.80;99.90;;;;;;5114834;28;20424;-69
2021/05/18 06:57:31;;;;;;;0.57;0.20;;;11.90;99.90;;;;;;5113618;28;20719;-69
2021/05/18 07:00:11;;;;;;;0.40;0.20;;;12.10;99.90;;;;;;5113462;28;20848;-68
2021/05/18 07:02:38;;;;;;;0.40;0.20;;;12.30;99.90;;;;;;5114390;28;20413;-69
2021/05/18 07:05:12;;;;;;;0.60;0.20;;;12.20;99.90;;;;;;5115330;28;20465;-69
2021/05/18 07:07:39;;;;;;;0.50;0.20;;;12.30;99.90;;;;;;5114022;28;20535;-69
2021/05/18 07:10:07;;;;;;;0.40;0.20;;;12.30;99.90;;;;;;5114939;28;20802;-68
2021/05/18 07:12:35;;;;;;;0.35;0.20;;;12.30;99.90;;;;;;5113389;28;20843;-69
2021/05/18 07:15:02;;;;;;;0.50;0.20;;;12.30;99.90;;;;;;5114501;28;20878;-68
2021/05/18 07:17:28;;;;;;;0.40;0.20;;;12.20;99.90;;;;;;5114515;28;20530;-69
2021/05/18 07:19:54;;;;;;;0.70;0.20;;;12.10;99.90;;;;;;5114474;28;20436;-69
2021/05/18 07:22:22;;;;;;;0.40;0.20;;;12.20;99.90;;;;;;5113191;28;20487;-69
2021/05/18 07:24:48;;;;;;;0.50;0.20;;;12.30;99.90;;;;;;5124182;27;20434;-69
2021/05/18 07:27:15;;;;;;;0.47;0.20;;;12.40;99.90;;;;;;5135313;27;20452;-69
2021/05/18 07:29:42;;;;;;;0.40;0.20;;;12.50;99.90;;;;;;5134512;27;20426;-70
2021/05/18 07:32:09;;;;;;;0.88;0.20;;;12.80;99.90;;;;;;5134566;27;20422;-68
2021/05/18 07:34:35;;;;;;;0.70;0.20;;;13.00;99.90;;;;;;5134717;27;20509;-69
2021/05/18 07:37:02;;;;;;;1.00;0.20;;;12.90;99.90;;;;;;5135152;27;20791;-69
2021/05/18 07:39:29;;;;;;;1.20;0.30;;;13.00;99.90;;;;;;5136188;27;20793;-69
2021/05/18 07:41:58;;;;;;;2.00;0.20;;;12.90;99.90;;;;;;5135819;27;20540;-71
2021/05/18 07:44:25;;;;;;;0.80;0.20;;;12.90;99.90;;;;;;5135105;27;20533;-69
2021/05/18 07:46:51;;;;;;;0.40;0.20;;;12.80;99.90;;;;;;5133431;27;20542;-68
2021/05/18 07:49:26;;;;;;;0.40;0.20;;;12.60;99.90;;;;;;5133763;27;20426;-69
2021/05/18 08:00:23;;;;;;;0.60;0.30;;;12.30;99.90;;;;;;5129708;28;20409;-69
2021/05/18 08:05:35;;;;;;;0.40;0.20;;;12.50;99.90;;;;;;5133447;28;20443;-70
2021/05/18 08:08:01;;;;;;;0.50;0.20;;;12.60;99.90;;;;;;5131199;28;20426;-70
2021/05/18 08:10:35;;;;;;;0.50;0.20;;;12.90;99.90;;;;;;5132445;28;20482;-71
2021/05/18 08:13:02;;;;;;;0.40;0.20;;;13.10;99.90;;;;;;5132895;28;20468;-71
2021/05/18 08:15:48;;;;;;;0.50;0.20;;;13.20;99.90;;;;;;5134322;28;20433;-70
2021/05/18 08:18:33;;;;;;;0.40;0.20;;;13.30;99.90;;;;;;5134794;28;20446;-70
2021/05/18 10:34:47;;;;;;;0.53;0.20;;;14.00;99.90;;;;;;5136326;27;20419;-71
2021/05/18 10:37:22;;;;;;;0.50;0.20;;;14.30;99.90;;;;;;5135542;27;20434;-71
2021/05/18 10:40:22;;;;;;;0.40;0.20;;;14.70;99.90;;;;;;5135995;27;20426;-70
2021/05/18 10:43:12;;;;;;;0.50;0.30;;;15.50;99.90;;;;;;5135317;27;20521;-72
2021/05/18 10:46:19;;;;;;;1.38;0.20;;;16.20;99.90;;;;;;5134242;27;20403;-71
2021/05/18 10:49:06;;;;;;;0.70;0.20;;;16.80;99.90;;;;;;5134809;27;20422;-71
2021/05/18 10:51:51;;;;;;;0.40;0.10;;;16.50;99.90;;;;;;5133904;27;20415;-70
2021/05/18 10:54:20;;;;;;;1.10;0.20;;;16.70;99.90;;;;;;5135554;27;20729;-71
2021/05/18 10:57:24;;;;;;;0.50;0.20;;;16.70;99.90;;;;;;5134168;27;20429;-72
2021/05/18 10:59:56;;;;;;;0.30;0.20;;;16.60;99.90;;;;;;5135978;27;20423;-70
2021/05/18 11:02:32;;;;;;;0.40;0.20;;;16.80;99.90;;;;;;5132089;27;20848;-71
2021/05/18 11:05:05;;;;;;;1.15;0.20;;;16.90;99.90;;;;;;5133143;27;20498;-70
2021/05/18 11:07:36;;;;;;;1.40;0.20;;;16.50;99.90;;;;;;5132950;27;20864;-70
2021/05/18 11:10:08;;;;;;;0.40;0.20;;;16.50;99.90;;;;;;5133006;27;20453;-70
2021/05/18 11:12:36;;;;;;;0.88;0.20;;;16.80;99.90;;;;;;5133308;27;20513;-71
2021/05/18 11:15:12;;;;;;;0.50;0.20;;;16.90;99.90;;;;;;5133516;27;20772;-71
2021/05/18 11:17:40;;;;;;;0.50;0.20;;;17.00;99.90;;;;;;5134125;27;20841;-71
2021/05/18 11:20:23;;;;;;;0.70;0.20;;;17.10;99.90;;;;;;5120894;27;20787;-71
2021/05/18 11:23:22;;;;;;;0.47;0.20;;;17.20;99.90;;;;;;5132615;27;20525;-71
2021/05/18 11:25:53;;;;;;;0.50;0.20;;;17.30;99.90;;;;;;5116430;27;20434;-71
2021/05/18 11:28:26;;;;;;;0.40;0.20;;;17.80;99.90;;;;;;5132987;27;20427;-72
2021/05/18 11:30:54;;;;;;;0.60;0.30;;;18.00;99.90;;;;;;5122400;27;20900;-71
2021/05/18 11:33:27;;;;;;;0.50;0.20;;;18.20;99.90;;;;;;5118881;27;20435;-72
2021/05/18 11:36:07;;;;;;;0.85;0.35;;;18.40;99.90;;;;;;5124790;27;20786;-72
2021/05/18 11:38:35;;;;;;;1.10;0.30;;;18.80;99.90;;;;;;5111643;27;20438;-71
2021/05/18 11:41:02;;;;;;;0.50;0.20;;;18.60;99.90;;;;;;5112705;28;20451;-72
2021/05/18 11:43:34;;;;;;;0.50;0.20;;;17.50;99.90;;;;;;5111957;28;20432;-71
2021/05/18 11:46:07;;;;;;;0.65;0.30;;;16.80;99.90;;;;;;5123926;27;20620;-70
2021/05/18 11:48:34;;;;;;;1.63;0.20;;;16.00;99.90;;;;;;5132986;27;20892;-70
2021/05/18 11:51:03;;;;;;;0.90;0.20;;;14.60;99.90;;;;;;5132670;28;20691;-70
2021/05/18 11:53:33;;;;;;;1.10;0.20;;;13.70;99.90;;;;;;5131107;28;20453;-69
2021/05/18 11:55:59;;;;;;;0.60;0.30;;;13.00;99.90;;;;;;5131307;28;20513;-70
2021/05/18 11:58:27;;;;;;;0.50;0.30;;;13.40;99.90;;;;;;5130908;28;20872;-70
2021/05/18 12:01:06;;;;;;;0.50;0.20;;;13.50;99.90;;;;;;5130252;28;20426;-70
2021/05/18 12:03:34;;;;;;;0.40;0.20;;;13.70;99.90;;;;;;5132147;27;20418;-70
2021/05/18 12:06:01;;;;;;;0.57;0.20;;;13.50;99.90;;;;;;5129829;27;20426;-69
2021/05/18 12:08:30;;;;;;;0.50;0.20;;;13.70;99.90;;;;;;5128117;27;20973;-70
2021/05/18 12:11:11;;;;;;;0.60;0.20;;;14.00;99.90;;;;;;5135152;27;20835;-69
2021/05/18 12:13:41;;;;;;;0.50;0.20;;;14.10;99.90;;;;;;5136557;27;20788;-69
2021/05/18 12:16:10;;;;;;;0.60;0.20;;;14.10;99.90;;;;;;5135520;27;20462;-69
2021/05/18 12:18:39;;;;;;;0.40;0.20;;;14.00;99.90;;;;;;5136226;27;20429;-69
2021/05/18 12:21:12;;;;;;;1.50;0.20;;;14.20;99.90;;;;;;5136143;27;20421;-70
2021/05/18 12:23:40;;;;;;;0.40;0.20;;;14.70;99.90;;;;;;5137867;27;20433;-71
2021/05/18 12:26:15;;;;;;;0.73;0.20;;;15.30;99.90;;;;;;5136893;27;20418;-70
2021/05/18 12:28:58;;;;;;;0.50;0.20;;;15.90;99.90;;;;;;5134995;27;20509;-69
2021/05/18 12:31:33;;;;;;;2.20;0.30;;;16.00;99.90;;;;;;5134379;27;20426;-69
2021/05/18 12:34:01;;;;;;;0.40;0.20;;;16.40;99.90;;;;;;5134188;27;20434;-70
2021/05/18 12:36:28;;;;;;;0.40;0.20;;;16.80;99.90;;;;;;5133985;27;20427;-70
2021/05/18 12:39:09;;;;;;;1.73;0.20;;;17.40;99.90;;;;;;5132072;27;20909;-68
2021/05/18 12:41:53;;;;;;;0.30;0.20;;;17.80;99.90;;;;;;5133719;27;20486;-69
2021/05/18 12:44:22;;;;;;;0.30;0.10;;;17.80;99.90;;;;;;5134029;27;20441;-68
2021/05/18 12:46:57;;;;;;;0.47;0.20;;;17.20;99.90;;;;;;5135970;27;20547;-69
2021/05/18 12:49:30;;;;;;;0.50;0.20;;;16.70;99.90;;;;;;5134766;27;20442;-70
2021/05/18 12:52:04;;;;;;;0.50;0.20;;;16.20;99.90;;;;;;5134949;27;20787;-70
2021/05/18 12:54:46;;;;;;;0.50;0.20;;;15.60;99.90;;;;;;5135745;27;20783;-70
2021/05/18 12:57:14;;;;;;;0.60;0.20;;;15.30;99.90;;;;;;5134374;27;20974;-69
2021/05/18 13:00:01;;;;;;;0.40;0.20;;;15.30;99.90;;;;;;5135541;27;20838;-69
2021/05/18 13:02:30;;;;;;;0.40;0.20;;;14.90;99.90;;;;;;5133515;27;20510;-68
2021/05/18 13:05:16;;;;;;;0.40;0.20;;;15.20;99.90;;;;;;5134621;27;20825;-69
2021/05/18 13:07:44;;;;;;;0.60;0.20;;;15.60;99.90;;;;;;5135172;27;20567;-69
2021/05/18 13:10:19;;;;;;;0.93;0.20;;;15.80;99.90;;;;;;5135945;27;20479;-69
2021/05/18 13:12:46;;;;;;;1.10;0.20;;;16.00;99.90;;;;;;5135115;27;20431;-69
2021/05/18 13:15:19;;;;;;;0.30;0.13;;;16.60;99.90;;;;;;5134164;27;20419;-69
2021/05/18 13:17:54;;;;;;;0.40;0.17;;;16.60;99.90;;;;;;5135903;27;20438;-73
2021/05/18 13:20:22;;;;;;;1.00;0.10;;;17.30;99.90;;;;;;5134888;27;20766;-74
2021/05/18 13:22:53;;;;;;;0.40;0.20;;;17.40;99.90;;;;;;5133772;27;20525;-73
2021/05/18 13:28:05;;;;;;;0.50;0.20;;;17.20;99.90;;;;;;5135227;27;20453;-73
2021/05/18 13:30:32;;;;;;;0.60;0.10;;;17.40;99.90;;;;;;5135020;27;20446;-73
2021/05/18 13:33:00;;;;;;;0.40;0.20;;;17.10;99.90;;;;;;5136108;27;20437;-74
2021/05/18 13:35:28;;;;;;;0.50;0.20;;;16.70;99.90;;;;;;5134608;27;20928;-74
2021/05/18 13:37:55;;;;;;;0.30;0.20;;;16.40;99.90;;;;;;5135415;27;20415;-74
2021/05/18 13:40:24;;;;;;;0.30;0.10;;;16.40;99.90;;;;;;5134568;27;20529;-73
2021/05/18 13:42:54;;;;;;;0.30;0.10;;;16.40;99.90;;;;;;5133093;27;20774;-73
2021/05/18 13:45:25;;;;;;;0.40;0.10;;;16.80;99.90;;;;;;5133613;27;20430;-75
2021/05/18 13:47:54;;;;;;;1.00;0.20;;;17.10;99.90;;;;;;5132467;27;20422;-75
2021/05/18 13:50:22;;;;;;;0.40;0.10;;;17.30;99.90;;;;;;5132090;27;20430;-74
2021/05/18 13:52:49;;;;;;;0.40;0.20;;;17.10;99.90;;;;;;5132368;27;20423;-74
2021/05/18 13:55:16;;;;;;;0.40;0.10;;;16.80;99.90;;;;;;5131076;27;20684;-74
2021/05/18 13:57:43;;;;;;;0.40;0.10;;;16.20;99.90;;;;;;5130891;27;20443;-74
2021/05/18 14:00:13;;;;;;;0.38;0.20;;;15.80;99.90;;;;;;5132769;27;20544;-74
2021/05/18 14:02:41;;;;;;;0.30;0.20;;;15.60;99.90;;;;;;5132465;27;20430;-76
2021/05/18 14:05:10;;;;;;;1.40;0.20;;;15.10;99.90;;;;;;5133710;27;20760;-75
2021/05/18 14:08:19;;;;;;;1.20;0.30;;;14.60;99.90;;;;;;5132950;27;20783;-73
2021/05/18 14:10:47;;;;;;;1.05;0.20;;;13.70;99.90;;;;;;5106489;27;20501;-76
2021/05/18 14:13:13;;;;;;;0.60;0.20;;;13.10;99.90;;;;;;5134818;27;20664;-75
2021/05/18 14:15:41;;;;;;;0.90;0.10;;;13.20;99.90;;;;;;5134595;27;20423;-75
2021/05/18 14:18:08;;;;;;;0.40;0.10;;;13.20;99.90;;;;;;5134122;27;20434;-73
2021/05/18 14:20:35;;;;;;;0.53;0.20;;;13.10;99.90;;;;;;5135120;27;20509;-73
2021/05/18 14:23:01;;;;;;;1.00;0.10;;;13.30;99.90;;;;;;5133704;27;20418;-73
2021/05/18 14:25:28;;;;;;;0.40;0.20;;;13.60;99.90;;;;;;5134632;27;20410;-71
2021/05/18 14:27:55;;;;;;;0.43;0.20;;;14.30;99.90;;;;;;5135065;27;20505;-72
2021/05/18 14:30:22;;;;;;;0.90;0.20;;;14.70;99.90;;;;;;5135687;27;20462;-72
2021/05/18 14:32:48;;;;;;;0.50;0.30;;;14.90;99.90;;;;;;5135705;27;20495;-72
2021/05/18 14:35:15;;;;;;;0.70;0.30;;;15.00;99.90;;;;;;5136100;27;20522;-73
2021/05/18 14:37:43;;;;;;;0.30;0.10;;;15.30;99.90;;;;;;5121239;27;20511;-72
2021/05/18 14:40:24;;;;;;;0.50;0.20;;;15.20;99.90;;;;;;5116989;28;20515;-73
2021/05/18 14:42:53;;;;;;;0.40;0.20;;;15.30;99.90;;;;;;5118076;28;20774;-73
2021/05/18 14:45:26;;;;;;;0.43;0.10;;;15.80;99.90;;;;;;5116467;28;20447;-73
2021/05/18 14:48:10;;;;;;;0.82;0.38;;;16.10;99.90;;;;;;5115852;28;20436;-73
2021/05/18 14:53:43;;;;;;;0.55;0.10;;;15.90;99.90;;;;;;5135283;27;20417;-74
2021/05/18 14:56:10;;;;;;;0.50;0.30;;;15.90;99.90;;;;;;5132674;27;20662;-74
2021/05/18 14:58:36;;;;;;;0.50;0.30;;;15.90;99.90;;;;;;5131832;27;20517;-74
2021/05/18 15:01:04;;;;;;;0.40;0.20;;;16.10;99.90;;;;;;5133657;27;20433;-73
2021/05/18 15:03:32;;;;;;;0.50;0.20;;;16.00;99.90;;;;;;5133814;27;20454;-73
2021/05/18 15:05:59;;;;;;;0.40;0.20;;;16.00;99.90;;;;;;5133799;27;20488;-73
2021/05/18 15:08:25;;;;;;;0.30;0.20;;;16.00;99.90;;;;;;5132440;27;20613;-74
2021/05/18 15:10:54;;;;;;;0.80;0.20;;;16.10;99.90;;;;;;5131681;27;20532;-73
2021/05/18 15:13:21;;;;;;;0.70;0.10;;;16.10;99.90;;;;;;5125201;27;20445;-73
2021/05/18 15:15:47;;;;;;;0.75;0.10;;;15.80;99.90;;;;;;5127727;27;20819;-73
2021/05/18 15:18:16;;;;;;;0.30;0.10;;;15.80;99.90;;;;;;5132656;27;20458;-73
2021/05/18 15:20:42;;;;;;;0.70;0.10;;;16.00;99.90;;;;;;5131225;27;20418;-73
2021/05/18 15:23:08;;;;;;;0.40;0.10;;;16.00;99.90;;;;;;5132435;27;20749;-73
2021/05/18 15:25:35;;;;;;;0.30;0.10;;;15.90;99.90;;;;;;5124474;27;20436;-72
2021/05/18 15:28:01;;;;;;;0.47;0.10;;;16.00;99.90;;;;;;5132273;27;20454;-72
2021/05/18 15:30:28;;;;;;;0.30;0.10;;;15.80;99.90;;;;;;5131783;27;20734;-73
2021/05/18 15:32:54;;;;;;;0.30;0.10;;;15.90;99.90;;;;;;5133063;27;20426;-72
2021/05/18 15:35:21;;;;;;;0.70;0.40;;;16.10;99.90;;;;;;5133658;27;20805;-72
2021/05/18 15:37:47;;;;;;;0.40;0.10;;;16.30;99.90;;;;;;5134945;27;20489;-72
2021/05/18 15:40:26;;;;;;;0.82;0.10;;;16.30;99.90;;;;;;5135491;27;20421;-73
2021/05/18 15:42:52;;;;;;;0.30;0.20;;;16.30;99.90;;;;;;5138247;27;20718;-72
2021/05/18 15:45:19;;;;;;;0.35;0.10;;;16.00;99.90;;;;;;5134175;27;20481;-72
2021/05/18 15:47:45;;;;;;;0.45;0.20;;;15.60;99.90;;;;;;5134542;27;20434;-75
2021/05/18 15:50:14;;;;;;;1.10;0.40;;;15.50;99.90;;;;;;5135640;27;20414;-73
2021/05/18 15:52:41;;;;;;;1.00;0.30;;;15.50;99.90;;;;;;5131003;28;20479;-74
2021/05/18 15:55:09;;;;;;;0.40;0.20;;;15.70;99.90;;;;;;5132970;28;20491;-73
2021/05/18 15:57:35;;;;;;;0.77;0.20;;;15.80;99.90;;;;;;5132644;28;20718;-73
2021/05/18 16:00:02;;;;;;;0.40;0.20;;;15.60;99.90;;;;;;5133140;28;20406;-74
2021/05/18 16:02:28;;;;;;;0.40;0.20;;;15.70;99.90;;;;;;5130094;28;20443;-73
2021/05/18 16:04:55;;;;;;;0.40;0.20;;;15.60;99.90;;;;;;5125357;28;20430;-72
2021/05/18 16:07:22;;;;;;;0.40;0.20;;;15.30;99.90;;;;;;5132025;28;20841;-72
2021/05/18 16:09:53;;;;;;;0.40;0.10;;;15.10;99.90;;;;;;5132234;28;20460;-72
2021/05/18 16:12:20;;;;;;;1.17;0.20;;;15.00;99.90;;;;;;5132191;28;20489;-73
2021/05/18 16:14:47;;;;;;;0.55;0.20;;;14.80;99.90;;;;;;5130163;28;20497;-71
2021/05/18 16:17:15;;;;;;;0.55;0.20;;;14.60;99.90;;;;;;5120663;28;20431;-73
2021/05/18 16:19:42;;;;;;;0.40;0.20;;;14.30;99.90;;;;;;5127486;28;20735;-71
2021/05/18 16:22:09;;;;;;;0.80;0.30;;;13.80;99.90;;;;;;5126455;28;20533;-73
2021/05/18 16:24:35;;;;;;;2.00;0.20;;;13.60;99.90;;;;;;5130075;28;20440;-73
2021/05/18 16:27:05;;;;;;;0.40;0.20;;;13.50;99.90;;;;;;5133008;28;20430;-73
2021/05/18 16:29:32;;;;;;;0.57;0.30;;;13.30;99.90;;;;;;5131092;28;20430;-73
2021/05/18 16:31:59;;;;;;;0.90;0.30;;;13.20;99.90;;;;;;5123059;28;20434;-73
2021/05/18 16:34:27;;;;;;;0.80;0.20;;;13.20;99.90;;;;;;5117850;28;20430;-73
2021/05/18 16:36:53;;;;;;;0.40;0.20;;;13.00;99.90;;;;;;5131722;28;20431;-73
2021/05/18 16:39:22;;;;;;;0.40;0.20;;;12.80;99.90;;;;;;5132858;28;20521;-72
2021/05/18 16:41:49;;;;;;;0.40;0.20;;;12.50;99.90;;;;;;5128449;28;20422;-73
2021/05/18 16:44:16;;;;;;;0.50;0.20;;;12.30;99.90;;;;;;5131660;28;20436;-73
2021/05/18 16:46:43;;;;;;;2.40;0.30;;;12.30;99.90;;;;;;5133369;28;20438;-73
2021/05/18 16:49:10;;;;;;;0.75;0.30;;;12.20;99.90;;;;;;5132236;27;20530;-74
2021/05/18 16:51:38;;;;;;;0.52;0.20;;;12.20;99.90;;;;;;5132715;27;20862;-73
2021/05/18 16:54:07;;;;;;;0.70;0.30;;;12.30;99.90;;;;;;5137052;27;20466;-73
2021/05/18 16:56:33;;;;;;;0.60;0.30;;;12.50;99.90;;;;;;5136545;27;20517;-73
2021/05/18 16:59:00;;;;;;;0.93;0.30;;;12.70;99.90;;;;;;5135801;27;20802;-73
2021/05/18 17:01:27;;;;;;;0.70;0.30;;;12.60;99.90;;;;;;5135347;27;20436;-73
2021/05/18 17:03:54;;;;;;;0.50;0.20;;;12.60;99.90;;;;;;5135219;27;20452;-72
2021/05/18 17:06:20;;;;;;;0.60;0.30;;;12.50;99.90;;;;;;5134903;27;20430;-73